UAL Aberdeen — PBHZ — position and weather

sailwx.info

Track history (hours):
 
Tides and Currents Weather Stations Pressure Air Temp Water Temp Dewpoint Dewpoint Depression Visibility Wind Speed Wind Dir Waves Ship Positions

UAL Aberdeen

Last reported at 2014-Dec-22 01:20 UTC. Time now 2014-Dec-23 04:23 UTC.
Position N 44°58' W 086°03'.

Length 129 m; beam 17 m.

Type: Cargo ship. MMSI: 244093964.

Date/timePositionNaut miles runAvg speedWind from/ knotsBaromVisibWave heightAir tempDewpointWater temp
2014-Dec-22 01:20N 44°58' W 086°03'1012.4
2014-Dec-22 00:33N 45°05' W 085°54'1312.8
2014-Dec-21 23:33N 45°16' W 085°44'1312.7
2014-Dec-21 22:33N 45°26' W 085°32'1312.7
2014-Dec-21 21:33N 45°36' W 085°22'1212.3
2014-Dec-21 20:33N 45°45' W 085°10'1010.1
2014-Dec-21 19:33N 45°50' W 084°57'1313.2
2014-Dec-21 18:33N 45°47' W 084°38'1313.2
2014-Dec-21 17:33N 45°41' W 084°21'1313.0
2014-Dec-21 16:33N 45°37' W 084°04'  
2014-Dec-18 07:08N 42°28' W 080°12'610.4
2014-Dec-18 06:33N 42°30' W 080°04'1010.5
2014-Dec-18 05:33N 42°35' W 079°51'172 6.1
2014-Dec-17 01:34N 44°02' W 076°28'9 9.0
2014-Dec-17 00:33N 44°09' W 076°20'10 9.8
2014-Dec-16 23:31N 44°14' W 076°08'90 7.5
2014-Dec-16 11:33N 45°08' W 074°26'1110.8
2014-Dec-16 10:33N 45°14' W 074°14'9 9.3
2014-Dec-16 09:33N 45°14' W 074°00'6 5.6
2014-Dec-16 08:33N 45°18' W 073°56'1 0.9
2014-Dec-16 07:33N 45°19' W 073°55'7 6.5
2014-Dec-16 06:33N 45°23' W 073°48'8 8.1
2014-Dec-16 05:33N 45°24' W 073°37'2 2.3
2014-Dec-16 04:32N 45°24' W 073°33'5 5.1
2014-Dec-16 03:32N 45°29' W 073°31'1 0.9
2014-Dec-16 02:33N 45°30' W 073°31'4 3.4
2014-Dec-16 01:31N 45°34' W 073°31'5 4.6
2014-Dec-16 00:31N 45°38' W 073°29'9 9.0
2014-Dec-15 23:34N 45°46' W 073°23'9 9.5
2014-Dec-15 22:34N 45°53' W 073°15'10 9.3
2014-Dec-15 21:27N 46°03' W 073°09'8 9.1
2014-Dec-15 20:31N 46°06' W 072°58'9 9.3
2014-Dec-15 19:33N 46°13' W 072°49'9 9.3
2014-Dec-15 18:33N 46°17' W 072°37'8 8.0
2014-Dec-15 17:33N 46°22' W 072°29'9 8.9
2014-Dec-15 16:33N 46°26' W 072°17'8 8.3
2014-Dec-15 15:33N 46°33' W 072°09'8 7.3
2014-Dec-15 14:25N 46°37' W 071°59'  
Track history (hours):
 
Tides and Currents Weather Stations Pressure Air Temp Water Temp Dewpoint Dewpoint Depression Visibility Wind Speed Wind Dir Waves Ship Positions

UAL Aberdeen

Last reported at 2014-Dec-22 01:20 UTC. Time now 2014-Dec-23 04:23 UTC.
Position N 44°58' W 086°03'.

Length 129 m; beam 17 m.

Type: Cargo ship. MMSI: 244093964.

Date/timePositionNaut miles runAvg speedWind from/ knotsBaromVisibWave heightAir tempDewpointWater temp
2014-Dec-22 01:20N 44°58' W 086°03'1012.4
2014-Dec-22 00:33N 45°05' W 085°54'1312.8
2014-Dec-21 23:33N 45°16' W 085°44'1312.7
2014-Dec-21 22:33N 45°26' W 085°32'1312.7
2014-Dec-21 21:33N 45°36' W 085°22'1212.3
2014-Dec-21 20:33N 45°45' W 085°10'1010.1
2014-Dec-21 19:33N 45°50' W 084°57'1313.2
2014-Dec-21 18:33N 45°47' W 084°38'1313.2
2014-Dec-21 17:33N 45°41' W 084°21'1313.0
2014-Dec-21 16:33N 45°37' W 084°04'  
2014-Dec-18 07:08N 42°28' W 080°12'610.4
2014-Dec-18 06:33N 42°30' W 080°04'1010.5
2014-Dec-18 05:33N 42°35' W 079°51'172 6.1
2014-Dec-17 01:34N 44°02' W 076°28'9 9.0
2014-Dec-17 00:33N 44°09' W 076°20'10 9.8
2014-Dec-16 23:31N 44°14' W 076°08'90 7.5
2014-Dec-16 11:33N 45°08' W 074°26'1110.8
2014-Dec-16 10:33N 45°14' W 074°14'9 9.3
2014-Dec-16 09:33N 45°14' W 074°00'6 5.6
2014-Dec-16 08:33N 45°18' W 073°56'1 0.9
2014-Dec-16 07:33N 45°19' W 073°55'7 6.5
2014-Dec-16 06:33N 45°23' W 073°48'8 8.1
2014-Dec-16 05:33N 45°24' W 073°37'2 2.3
2014-Dec-16 04:32N 45°24' W 073°33'5 5.1
2014-Dec-16 03:32N 45°29' W 073°31'1 0.9
2014-Dec-16 02:33N 45°30' W 073°31'4 3.4
2014-Dec-16 01:31N 45°34' W 073°31'5 4.6
2014-Dec-16 00:31N 45°38' W 073°29'9 9.0
2014-Dec-15 23:34N 45°46' W 073°23'9 9.5
2014-Dec-15 22:34N 45°53' W 073°15'10 9.3
2014-Dec-15 21:27N 46°03' W 073°09'8 9.1
2014-Dec-15 20:31N 46°06' W 072°58'9 9.3
2014-Dec-15 19:33N 46°13' W 072°49'9 9.3
2014-Dec-15 18:33N 46°17' W 072°37'8 8.0
2014-Dec-15 17:33N 46°22' W 072°29'9 8.9
2014-Dec-15 16:33N 46°26' W 072°17'8 8.3
2014-Dec-15 15:33N 46°33' W 072°09'8 7.3
2014-Dec-15 14:25N 46°37' W 071°59'  

Dump ship's entire track history